createdAt,value
2018-12-03T00:01:34.830Z,95.94
2018-12-03T00:04:11.542Z,96.01
2018-12-03T00:06:41.712Z,95.81
2018-12-03T00:09:11.809Z,95.66
2018-12-03T00:11:41.861Z,95.75
2018-12-03T00:14:11.766Z,95.69
2018-12-03T00:16:41.715Z,95.99
2018-12-03T00:19:11.695Z,95.94
2018-12-03T00:21:57.425Z,95.83
2018-12-03T00:24:27.357Z,96.12
2018-12-03T00:26:57.762Z,96.20
2018-12-03T00:29:28.091Z,95.96
2018-12-03T00:31:58.220Z,95.78
2018-12-03T00:34:29.054Z,95.48
2018-12-03T00:36:59.309Z,95.35
2018-12-03T00:39:29.583Z,95.55
2018-12-03T00:42:07.771Z,95.13
2018-12-03T00:44:39.127Z,95.63
2018-12-03T00:47:10.067Z,95.38
2018-12-03T00:49:40.675Z,94.94
2018-12-03T00:52:10.856Z,95.55
2018-12-03T00:54:40.784Z,95.11
2018-12-03T00:57:11.697Z,95.67
2018-12-03T00:59:41.885Z,95.12
2018-12-03T01:02:30.070Z,95.24
2018-12-03T01:05:00.159Z,95.31
2018-12-03T01:07:30.306Z,94.84
2018-12-03T01:10:00.241Z,95.59
2018-12-03T01:12:30.301Z,95.24
2018-12-03T01:15:00.340Z,94.98
2018-12-03T01:17:30.369Z,95.01
2018-12-03T01:20:01.340Z,95.11
2018-12-03T01:22:36.936Z,95.29
2018-12-03T01:25:07.175Z,94.79
2018-12-03T01:27:37.228Z,95.51
2018-12-03T01:30:10.699Z,94.76
2018-12-03T01:32:41.521Z,95.31
2018-12-03T01:35:12.139Z,95.35
2018-12-03T01:37:42.048Z,95.31
2018-12-03T01:40:13.898Z,95.32
2018-12-03T01:42:45.138Z,95.49
2018-12-03T01:45:15.225Z,95.14
2018-12-03T01:47:45.435Z,95.22
2018-12-03T01:50:15.650Z,95.16
2018-12-03T01:52:45.863Z,95.25
2018-12-03T01:55:16.113Z,94.98
2018-12-03T01:57:46.566Z,95.18
2018-12-03T02:00:18.953Z,94.72
2018-12-03T02:02:49.414Z,94.96
2018-12-03T02:05:19.765Z,95.32
2018-12-03T02:07:49.728Z,94.88
2018-12-03T02:10:20.082Z,95.12
2018-12-03T06:21:27.634Z,97.77
2018-12-03T06:24:00.288Z,98.00
2018-12-03T06:26:30.075Z,98.12
2018-12-03T06:28:59.630Z,97.69
2018-12-03T06:31:31.388Z,97.65
2018-12-03T06:34:01.912Z,97.90
2018-12-03T06:36:31.763Z,97.43
2018-12-03T06:39:01.341Z,97.97
2018-12-03T06:41:31.401Z,98.14
2018-12-03T06:45:27.056Z,98.01
2018-12-03T06:47:58.535Z,97.73
2018-12-03T06:50:28.148Z,97.74
2018-12-03T06:52:57.794Z,97.71
2018-12-03T06:55:27.199Z,97.87
2018-12-03T06:57:56.641Z,98.25
2018-12-03T07:00:26.521Z,98.13
2018-12-03T07:02:56.173Z,98.20
2018-12-03T07:05:47.634Z,97.83
2018-12-03T07:08:19.764Z,98.08
2018-12-03T07:10:49.122Z,98.02
2018-12-03T07:13:22.752Z,98.09
2018-12-03T07:15:56.531Z,97.66
2018-12-03T07:18:27.829Z,97.99
2018-12-03T07:20:58.410Z,98.06
2018-12-03T07:23:28.428Z,97.71
2018-12-03T07:32:04.487Z,97.74
2018-12-03T07:34:33.969Z,98.07
2018-12-03T07:37:03.480Z,97.97
2018-12-03T07:39:34.033Z,97.85
2018-12-03T07:42:03.699Z,97.97
2018-12-03T07:44:34.241Z,97.94
2018-12-03T07:47:03.959Z,97.58
2018-12-03T07:49:35.931Z,97.83
2018-12-03T08:01:02.507Z,97.05
2018-12-03T08:03:32.252Z,96.85
2018-12-03T08:06:02.137Z,96.80
2018-12-03T08:08:31.836Z,96.63
2018-12-03T08:11:03.888Z,96.43
2018-12-03T08:13:35.104Z,96.51
2018-12-03T08:16:04.603Z,96.32
2018-12-03T08:40:44.567Z,95.06
2018-12-03T08:59:25.574Z,95.91
2018-12-03T09:15:19.880Z,94.59
2018-12-03T09:33:19.523Z,94.37
2018-12-03T09:38:41.163Z,94.09
2018-12-03T09:41:11.546Z,93.82
2018-12-03T09:43:44.025Z,93.84
2018-12-03T09:46:15.591Z,93.20
2018-12-03T09:48:45.130Z,93.04
2018-12-03T09:51:15.862Z,92.62
2018-12-03T09:53:45.329Z,92.55
2018-12-03T09:56:14.736Z,92.81
2018-12-03T09:58:44.130Z,92.99
2018-12-03T10:01:14.151Z,83.56
2018-12-03T10:03:45.436Z,89.02
2018-12-03T10:06:17.497Z,91.16
2018-12-03T10:08:46.653Z,91.42
2018-12-03T10:11:16.286Z,91.17
2018-12-03T10:13:46.639Z,91.38
2018-12-03T10:16:15.893Z,91.08
2018-12-03T10:18:49.027Z,91.30
2018-12-03T10:21:18.410Z,90.92
2018-12-03T10:23:47.922Z,90.94
2018-12-03T10:26:17.887Z,91.51
2018-12-03T10:28:47.266Z,91.18
2018-12-03T10:31:22.846Z,90.56
2018-12-03T10:33:52.761Z,91.05
2018-12-03T10:36:22.441Z,90.61
2018-12-03T10:38:52.481Z,90.45
2018-12-03T10:41:30.502Z,90.10
2018-12-03T10:44:01.747Z,90.41
2018-12-03T10:46:31.057Z,89.84
2018-12-03T10:49:07.068Z,89.57
2018-12-03T10:51:36.490Z,89.32
2018-12-03T10:54:07.254Z,89.38
2018-12-03T10:56:37.115Z,89.14
2018-12-03T10:59:06.996Z,89.15
2018-12-03T11:01:43.864Z,88.90
2018-12-03T11:04:18.921Z,88.82
2018-12-03T11:06:49.086Z,88.05
2018-12-03T11:09:18.335Z,87.27
2018-12-03T11:11:49.448Z,86.35
2018-12-03T11:14:20.220Z,86.53
2018-12-03T11:16:49.736Z,86.70
2018-12-03T11:19:18.898Z,85.92
2018-12-03T11:21:48.887Z,86.19
2018-12-03T11:24:18.292Z,85.99
2018-12-03T11:26:49.726Z,85.62
2018-12-03T11:29:20.334Z,83.97
2018-12-03T11:31:50.393Z,81.15
2018-12-03T11:34:24.038Z,79.03
2018-12-03T11:36:55.720Z,77.01
2018-12-03T11:39:42.783Z,76.57
2018-12-03T11:42:12.535Z,76.59
2018-12-03T11:44:41.795Z,75.99
2018-12-03T11:47:11.142Z,75.88
2018-12-03T11:49:40.578Z,75.71
2018-12-03T11:52:09.840Z,76.89
2018-12-03T11:54:39.166Z,76.29
2018-12-03T11:57:08.810Z,74.75
2018-12-03T11:59:38.026Z,75.25
2018-12-03T12:02:08.885Z,76.55
2018-12-03T12:04:38.374Z,75.72
2018-12-03T12:07:08.167Z,76.86
2018-12-03T12:09:37.416Z,77.51
2018-12-03T12:12:08.666Z,77.06
2018-12-03T12:14:39.128Z,76.82
2018-12-03T12:17:08.444Z,77.24
2018-12-03T12:19:37.958Z,76.86
2018-12-03T12:22:07.811Z,77.58
2018-12-03T12:24:37.232Z,77.73
2018-12-03T12:27:08.349Z,78.16
2018-12-03T12:29:38.602Z,77.23
2018-12-03T12:32:07.975Z,76.53
2018-12-03T12:34:37.186Z,77.19
2018-12-03T12:37:07.146Z,77.43
2018-12-03T12:39:36.443Z,77.38
2018-12-03T12:42:06.608Z,77.22
2018-12-03T12:44:36.469Z,75.95
2018-12-03T12:47:06.904Z,76.93
2018-12-03T12:49:36.462Z,76.81
2018-12-03T12:52:06.640Z,77.44
2018-12-03T12:54:37.991Z,77.63
2018-12-03T12:57:07.329Z,77.31
2018-12-03T12:59:36.475Z,77.88
2018-12-03T13:02:08.130Z,78.30
2018-12-03T13:04:37.366Z,78.19
2018-12-03T13:07:06.750Z,78.58
2018-12-03T13:09:35.982Z,77.76
2018-12-03T13:12:06.200Z,78.52
2018-12-03T13:14:37.060Z,79.18
2018-12-03T13:17:07.399Z,78.71
2018-12-03T13:19:37.838Z,79.68
2018-12-03T13:22:07.681Z,79.05
2018-12-03T13:24:37.004Z,79.16
2018-12-03T13:27:08.153Z,78.98
2018-12-03T13:29:37.514Z,79.06
2018-12-03T13:32:07.505Z,79.32
2018-12-03T13:34:38.262Z,79.32
2018-12-03T13:37:08.309Z,78.61
2018-12-03T13:39:37.539Z,78.34
2018-12-03T13:42:08.728Z,78.62
2018-12-03T13:44:38.151Z,78.77
2018-12-03T13:47:07.770Z,78.02
2018-12-03T13:49:37.159Z,78.43
2018-12-03T13:52:07.118Z,78.11
2018-12-03T13:54:36.522Z,78.08
2018-12-03T13:57:06.189Z,78.79
2018-12-03T13:59:35.495Z,78.56
2018-12-03T14:02:05.299Z,78.89
2018-12-03T14:04:44.419Z,78.53
2018-12-03T14:07:28.475Z,78.41
2018-12-03T14:10:17.434Z,78.79
2018-12-03T14:13:53.490Z,78.44
2018-12-03T14:16:27.262Z,78.96
2018-12-03T14:19:01.067Z,78.98
2018-12-03T14:21:43.401Z,79.33
2018-12-03T14:24:17.633Z,79.68
2018-12-03T14:26:47.044Z,79.38
2018-12-03T14:29:16.881Z,78.92
2018-12-03T14:31:46.087Z,79.08
2018-12-03T14:34:20.749Z,79.36
2018-12-03T14:36:50.029Z,79.01
2018-12-03T14:39:19.875Z,79.27
2018-12-03T14:41:49.196Z,79.05
2018-12-03T14:44:18.424Z,78.48
2018-12-03T14:46:48.225Z,78.21
2018-12-03T14:49:17.617Z,78.91
2018-12-03T14:51:47.228Z,78.84
2018-12-03T14:54:30.770Z,79.12
2018-12-03T14:57:02.084Z,78.78
2018-12-03T14:59:31.651Z,77.56
2018-12-03T15:02:01.582Z,78.70
2018-12-03T15:04:31.920Z,78.79
2018-12-03T15:07:01.201Z,78.98
2018-12-03T15:09:30.423Z,79.81
2018-12-03T15:12:01.333Z,80.59
2018-12-03T15:14:30.514Z,80.86
2018-12-03T15:16:59.819Z,81.84
2018-12-03T15:19:29.296Z,81.72
2018-12-03T15:24:54.124Z,82.15
2018-12-03T15:27:34.150Z,82.35
2018-12-03T15:30:05.781Z,82.40
2018-12-03T15:32:40.443Z,82.03
2018-12-03T15:35:12.228Z,81.88
2018-12-03T15:37:41.961Z,82.28
2018-12-03T15:40:16.776Z,81.99
2018-12-03T15:42:47.944Z,81.81
2018-12-03T15:45:21.754Z,80.97
2018-12-03T15:47:53.453Z,81.93
2018-12-03T15:50:23.127Z,80.73
2018-12-03T15:52:52.934Z,81.00
2018-12-03T15:55:23.614Z,81.33
2018-12-03T15:57:58.052Z,81.74
2018-12-03T16:00:35.275Z,81.60
2018-12-03T16:03:09.376Z,81.49
2018-12-03T16:05:42.402Z,81.63
2018-12-03T16:08:26.526Z,81.88
2018-12-03T16:11:04.326Z,82.07
2018-12-03T16:13:40.374Z,82.67
2018-12-03T16:16:10.295Z,82.91
2018-12-03T16:18:39.558Z,83.21
2018-12-03T16:21:09.718Z,83.02
2018-12-03T16:23:38.901Z,83.22
2018-12-03T16:26:08.150Z,83.24
2018-12-03T16:28:41.789Z,83.46
2018-12-03T16:31:11.725Z,83.10
2018-12-03T16:33:48.578Z,83.47
2018-12-03T16:36:19.972Z,83.69
2018-12-03T16:38:52.267Z,83.78
2018-12-03T16:41:22.455Z,84.15
2018-12-03T16:43:51.675Z,83.75
2018-12-03T16:46:20.853Z,83.44
2018-12-03T16:48:50.457Z,83.52
2018-12-03T16:51:19.615Z,83.94
2018-12-03T16:53:48.778Z,83.61
2018-12-03T16:56:17.937Z,83.81
2018-12-03T16:58:48.161Z,83.93
2018-12-03T17:01:17.482Z,84.09
2018-12-03T17:03:46.687Z,84.07
2018-12-03T17:06:16.899Z,84.12
2018-12-03T17:08:46.582Z,84.28
2018-12-03T17:11:15.717Z,84.15
2018-12-03T17:13:44.930Z,84.46
2018-12-03T17:16:14.173Z,84.25
2018-12-03T17:18:46.016Z,84.36
2018-12-03T17:21:47.630Z,84.39
2018-12-03T17:24:22.658Z,84.04
2018-12-03T17:26:52.451Z,83.46
2018-12-03T17:30:50.791Z,83.17
2018-12-03T17:33:20.025Z,83.20
2018-12-03T17:35:49.269Z,83.11
2018-12-03T17:38:18.924Z,83.26
2018-12-03T17:40:48.789Z,83.15
2018-12-03T17:43:17.912Z,82.77
2018-12-03T17:45:47.891Z,82.66
2018-12-03T17:48:17.344Z,82.60
2018-12-03T17:50:46.824Z,82.42
2018-12-03T17:53:15.954Z,82.70
2018-12-03T17:55:45.142Z,82.00
2018-12-03T17:58:14.337Z,82.08
2018-12-03T18:00:44.507Z,82.26
2018-12-03T18:03:13.790Z,82.42
2018-12-03T18:05:42.987Z,82.32
2018-12-03T18:08:12.615Z,82.51
2018-12-03T18:10:41.973Z,82.38
2018-12-03T18:13:11.335Z,82.38
2018-12-03T18:15:41.973Z,82.50
2018-12-03T18:18:11.222Z,82.62
2018-12-03T18:20:41.186Z,82.53
2018-12-03T18:23:10.421Z,82.32
2018-12-03T18:25:39.701Z,82.32
2018-12-03T18:28:09.057Z,82.05
2018-12-03T18:37:39.314Z,82.34
2018-12-03T18:40:10.158Z,82.70
2018-12-03T18:42:40.534Z,83.01
2018-12-03T18:45:10.094Z,83.18
2018-12-03T18:47:39.358Z,83.50
2018-12-03T18:50:15.602Z,83.36
2018-12-03T18:52:45.800Z,83.52
2018-12-03T18:55:14.995Z,83.68
2018-12-03T18:57:46.630Z,83.19
2018-12-03T19:00:16.029Z,83.00
2018-12-03T19:02:45.197Z,83.39
2018-12-03T19:05:14.421Z,83.39
2018-12-03T19:07:44.059Z,83.12
2018-12-03T19:10:13.220Z,82.80
2018-12-03T19:12:43.457Z,83.15
2018-12-03T19:15:12.731Z,82.69
2018-12-03T19:17:42.516Z,82.66
2018-12-03T19:20:12.054Z,82.52
2018-12-03T19:22:41.980Z,82.90
2018-12-03T19:25:11.469Z,82.62
2018-12-03T19:27:40.841Z,82.55
2018-12-03T19:30:12.541Z,82.86
2018-12-03T19:32:44.781Z,83.01
2018-12-03T19:35:32.798Z,83.37
2018-12-03T19:38:04.535Z,83.53
2018-12-03T19:40:34.619Z,83.46
2018-12-03T19:43:03.872Z,83.64
2018-12-03T19:45:33.317Z,83.78
2018-12-03T19:48:03.297Z,84.08
2018-12-03T19:50:32.527Z,83.84
2018-12-03T19:53:02.042Z,83.90
2018-12-03T19:55:32.075Z,83.72
2018-12-03T19:58:22.467Z,84.10
2018-12-03T20:00:51.643Z,83.79
2018-12-03T20:03:21.718Z,83.67
2018-12-03T20:05:50.934Z,83.60
2018-12-03T20:08:20.438Z,83.93
2018-12-03T20:10:49.558Z,83.65
2018-12-03T20:13:18.837Z,84.10
2018-12-03T20:15:48.138Z,83.82
2018-12-03T20:18:17.358Z,83.75
2018-12-03T20:20:50.389Z,83.58
2018-12-03T20:23:33.602Z,83.71
2018-12-03T20:26:26.875Z,84.32
2018-12-03T20:29:06.166Z,85.11
2018-12-03T20:31:52.730Z,85.76
2018-12-03T20:34:28.366Z,85.81
2018-12-03T20:40:00.842Z,85.78
2018-12-03T20:42:33.488Z,86.24
2018-12-03T20:46:10.895Z,86.94
2018-12-03T20:51:00.001Z,88.81
2018-12-03T20:53:38.170Z,89.76
2018-12-03T20:56:07.449Z,90.64
2018-12-03T20:58:36.689Z,90.49
2018-12-03T21:01:06.035Z,90.47
2018-12-03T21:03:35.423Z,89.96
2018-12-03T21:06:04.765Z,89.91
2018-12-03T21:08:33.997Z,89.20
2018-12-03T21:11:03.176Z,89.34
2018-12-03T21:13:33.203Z,89.03
2018-12-03T21:16:03.693Z,89.35
2018-12-03T21:18:32.905Z,90.61
2018-12-03T21:21:03.939Z,91.18
2018-12-03T21:23:33.419Z,91.43
2018-12-03T21:26:03.292Z,91.63
2018-12-03T21:28:32.483Z,91.23
2018-12-03T21:31:01.647Z,91.43
2018-12-03T21:33:30.832Z,91.02
2018-12-03T21:36:00.255Z,90.95
2018-12-03T21:38:29.451Z,90.32
2018-12-03T21:40:58.667Z,89.51
2018-12-03T21:43:27.923Z,89.26
2018-12-03T21:45:57.134Z,89.33
2018-12-03T21:49:55.454Z,88.97
2018-12-03T21:52:25.047Z,89.05
2018-12-03T21:54:54.431Z,89.37
2018-12-03T21:57:23.555Z,89.46
2018-12-03T21:59:56.895Z,89.44
2018-12-03T22:02:24.242Z,89.59
2018-12-03T22:04:53.497Z,90.01
2018-12-03T22:07:23.178Z,90.17
2018-12-03T22:09:52.411Z,90.43
2018-12-03T22:12:21.660Z,90.74
2018-12-03T22:14:50.914Z,91.03
2018-12-03T22:17:20.394Z,91.75
2018-12-03T22:19:49.606Z,91.47
2018-12-03T22:22:18.927Z,91.51
2018-12-03T22:24:48.165Z,91.61
2018-12-03T22:27:18.186Z,91.07
2018-12-03T22:29:47.401Z,90.65
2018-12-03T22:32:16.579Z,90.29
2018-12-03T22:34:45.927Z,90.40
2018-12-03T22:37:15.072Z,90.48
2018-12-03T22:39:46.485Z,90.96
2018-12-03T22:42:17.185Z,90.72
2018-12-03T22:44:46.453Z,90.89
2018-12-03T22:47:15.607Z,91.00
2018-12-03T22:49:44.812Z,91.35
2018-12-03T22:52:13.973Z,91.24
2018-12-03T22:54:43.162Z,91.14
2018-12-03T22:57:12.924Z,91.29
2018-12-03T22:59:42.175Z,91.49
2018-12-03T23:02:11.339Z,91.38
2018-12-03T23:04:40.712Z,92.11
2018-12-03T23:07:09.871Z,91.80
2018-12-03T23:09:39.139Z,91.75
2018-12-03T23:12:08.409Z,91.87
2018-12-03T23:14:37.640Z,91.53
2018-12-03T23:17:07.086Z,91.68
2018-12-03T23:19:36.603Z,91.58
2018-12-03T23:22:05.902Z,91.18
2018-12-03T23:24:35.106Z,90.35
2018-12-03T23:27:04.755Z,89.65
2018-12-03T23:29:33.974Z,89.65
2018-12-03T23:32:03.177Z,89.88
2018-12-03T23:34:32.426Z,89.55
2018-12-03T23:37:01.605Z,89.26
2018-12-03T23:39:30.721Z,89.15
2018-12-03T23:41:59.929Z,89.14
2018-12-03T23:44:29.138Z,88.27
2018-12-03T23:46:58.610Z,88.20
2018-12-03T23:49:27.873Z,87.49
2018-12-03T23:51:57.132Z,87.68
2018-12-03T23:54:26.745Z,87.53
2018-12-03T23:56:56.562Z,87.11
2018-12-03T23:59:26.978Z,87.57
